Time;durP1;ratioP1;P1;durP2;ratioP2;P2;SDS_P1;SDS_P2;PMS_P1;PMS_P2;Temp;Humidity;BMP_temperature;BMP_pressure;BME280_temperature;BME280_humidity;BME280_pressure;Samples;Min_cycle;Max_cycle;Signal;HPM_P1;HPM_P2
2024/03/31 00:02:12;;;;;;;38.03;17.88;;;;;;;;;;5133114;28;20083;-58
2024/03/31 00:04:37;;;;;;;34.30;17.43;;;;;;;;;;5132209;28;20059;-59
2024/03/31 00:07:03;;;;;;;37.83;18.97;;;;;;;;;;5132540;28;20040;-58
2024/03/31 00:09:28;;;;;;;37.70;19.38;;;;;;;;;;5138027;28;20133;-59
2024/03/31 00:11:54;;;;;;;36.77;18.37;;;;;;;;;;5137778;28;20035;-58
2024/03/31 00:14:20;;;;;;;33.13;17.17;;;;;;;;;;5135189;28;20057;-58
2024/03/31 00:16:45;;;;;;;34.13;17.83;;;;;;;;;;5130304;28;20107;-59
2024/03/31 00:19:10;;;;;;;31.30;16.57;;;;;;;;;;5137655;28;20023;-59
2024/03/31 00:21:36;;;;;;;30.83;17.20;;;;;;;;;;5137386;28;20031;-59
2024/03/31 00:24:01;;;;;;;29.67;16.55;;;;;;;;;;5137824;28;20028;-57
2024/03/31 00:26:27;;;;;;;26.55;15.75;;;;;;;;;;5134623;28;20042;-59
2024/03/31 00:28:53;;;;;;;31.00;16.47;;;;;;;;;;5136105;28;20036;-59
2024/03/31 00:31:19;;;;;;;27.35;14.98;;;;;;;;;;5108408;28;20292;-59
2024/03/31 00:33:48;;;;;;;32.03;17.57;;;;;;;;;;5117917;28;20031;-59
2024/03/31 00:36:14;;;;;;;24.37;14.07;;;;;;;;;;5132667;28;20015;-59
2024/03/31 00:38:39;;;;;;;28.67;16.33;;;;;;;;;;5137514;28;20259;-58
2024/03/31 00:41:05;;;;;;;28.13;16.60;;;;;;;;;;5131884;28;20031;-58
2024/03/31 00:43:30;;;;;;;27.27;15.20;;;;;;;;;;5136445;28;20209;-57
2024/03/31 00:45:56;;;;;;;26.77;14.77;;;;;;;;;;5129641;28;20095;-58
2024/03/31 00:48:22;;;;;;;23.58;13.85;;;;;;;;;;5136856;28;20722;-58
2024/03/31 00:50:47;;;;;;;22.95;14.20;;;;;;;;;;5114992;28;20032;-57
2024/03/31 00:53:12;;;;;;;26.07;14.07;;;;;;;;;;5119498;28;20042;-59
2024/03/31 00:55:38;;;;;;;23.08;13.77;;;;;;;;;;5136828;28;20039;-58
2024/03/31 00:58:03;;;;;;;24.63;14.17;;;;;;;;;;5119813;28;20028;-57
2024/03/31 01:00:32;;;;;;;28.83;14.50;;;;;;;;;;5102533;28;20051;-59
2024/03/31 01:02:58;;;;;;;25.03;14.87;;;;;;;;;;5119205;28;20355;-58
2024/03/31 01:05:23;;;;;;;24.57;14.67;;;;;;;;;;5130054;28;20267;-60
2024/03/31 01:07:48;;;;;;;25.37;14.60;;;;;;;;;;5119606;28;20101;-57
2024/03/31 01:10:14;;;;;;;25.88;14.45;;;;;;;;;;5112787;28;20032;-57
2024/03/31 01:12:39;;;;;;;22.87;12.97;;;;;;;;;;5106962;28;20047;-56
2024/03/31 01:15:05;;;;;;;20.93;12.40;;;;;;;;;;5116050;28;20027;-57
2024/03/31 01:17:30;;;;;;;26.20;14.13;;;;;;;;;;5118579;28;20024;-56
2024/03/31 01:19:56;;;;;;;21.27;12.23;;;;;;;;;;5135733;28;20135;-58
2024/03/31 01:22:24;;;;;;;;;;;;;;;;;;5114187;28;20031;-57
2024/03/31 01:24:49;;;;;;;18.27;11.67;;;;;;;;;;5136358;28;19946;-58
2024/03/31 01:27:15;;;;;;;17.08;10.35;;;;;;;;;;5136435;28;20268;-57
2024/03/31 01:29:40;;;;;;;19.08;10.27;;;;;;;;;;5118032;28;20038;-57
2024/03/31 01:32:07;;;;;;;18.27;10.73;;;;;;;;;;5112347;28;20024;-57
2024/03/31 01:34:33;;;;;;;17.20;10.90;;;;;;;;;;5129950;28;20286;-60
2024/03/31 01:36:58;;;;;;;16.55;10.27;;;;;;;;;;5129350;28;20034;-57
2024/03/31 01:39:24;;;;;;;16.85;10.13;;;;;;;;;;5135991;28;20050;-60
2024/03/31 01:41:49;;;;;;;15.40;9.13;;;;;;;;;;5122823;28;20029;-59
2024/03/31 01:44:15;;;;;;;14.88;9.40;;;;;;;;;;5101568;28;20063;-59
2024/03/31 01:46:41;;;;;;;17.15;10.45;;;;;;;;;;5132988;28;20035;-57
2024/03/31 01:49:07;;;;;;;17.25;10.55;;;;;;;;;;5113751;28;20043;-58
2024/03/31 01:51:32;;;;;;;18.80;10.77;;;;;;;;;;5134893;28;20039;-59
2024/03/31 01:53:59;;;;;;;15.67;9.33;;;;;;;;;;5132669;28;20016;-59
2024/03/31 01:56:24;;;;;;;18.53;9.77;;;;;;;;;;5107268;28;20264;-58
2024/03/31 01:58:50;;;;;;;17.65;10.30;;;;;;;;;;5129025;28;20261;-59
2024/03/31 02:01:16;;;;;;;18.47;11.20;;;;;;;;;;5136197;27;20133;-59
2024/03/31 02:03:42;;;;;;;23.00;11.45;;;;;;;;;;5110887;28;20286;-58
2024/03/31 02:06:08;;;;;;;18.57;10.40;;;;;;;;;;5115770;28;20031;-58
2024/03/31 02:08:33;;;;;;;19.27;11.32;;;;;;;;;;5134850;28;20292;-59
2024/03/31 02:10:59;;;;;;;20.57;10.73;;;;;;;;;;5123505;28;20038;-60
2024/03/31 02:13:24;;;;;;;18.67;10.38;;;;;;;;;;5129239;28;20024;-59
2024/03/31 02:15:50;;;;;;;21.10;11.70;;;;;;;;;;5117851;28;20062;-58
2024/03/31 02:18:15;;;;;;;19.63;10.10;;;;;;;;;;5123723;28;20070;-59
2024/03/31 02:20:41;;;;;;;21.00;10.45;;;;;;;;;;5113022;28;20019;-59
2024/03/31 02:23:07;;;;;;;24.70;13.43;;;;;;;;;;5132311;28;20027;-60
2024/03/31 02:25:33;;;;;;;25.42;11.95;;;;;;;;;;5130295;28;20044;-60
2024/03/31 02:27:59;;;;;;;19.42;11.27;;;;;;;;;;5129124;28;20095;-58
2024/03/31 02:30:24;;;;;;;22.75;12.68;;;;;;;;;;5111827;28;20047;-60
2024/03/31 02:32:51;;;;;;;23.70;11.93;;;;;;;;;;5114652;28;20032;-59
2024/03/31 02:35:17;;;;;;;23.33;12.30;;;;;;;;;;5117686;28;20255;-60
2024/03/31 02:37:44;;;;;;;22.60;11.77;;;;;;;;;;5114680;28;20035;-60
2024/03/31 02:40:09;;;;;;;24.67;13.87;;;;;;;;;;5117607;28;20037;-58
2024/03/31 02:42:37;;;;;;;24.40;12.73;;;;;;;;;;5116937;28;20271;-59
2024/03/31 02:45:03;;;;;;;26.05;13.80;;;;;;;;;;5113335;28;20256;-59
2024/03/31 02:47:29;;;;;;;26.33;14.52;;;;;;;;;;5114511;28;20031;-60
2024/03/31 02:49:54;;;;;;;29.00;14.05;;;;;;;;;;5117446;28;20092;-59
2024/03/31 02:52:20;;;;;;;28.93;14.13;;;;;;;;;;5109186;28;20036;-57
2024/03/31 02:54:46;;;;;;;24.27;11.77;;;;;;;;;;5116861;28;20058;-59
2024/03/31 02:57:11;;;;;;;;;;;;;;;;;;5116207;28;20095;-60
2024/03/31 02:59:37;;;;;;;26.85;12.20;;;;;;;;;;5116962;28;19927;-59
2024/03/31 03:02:04;;;;;;;26.30;13.53;;;;;;;;;;5116997;28;20016;-59
2024/03/31 03:04:31;;;;;;;29.15;14.43;;;;;;;;;;5117024;28;20256;-59
2024/03/31 03:06:56;;;;;;;28.73;14.02;;;;;;;;;;5117272;28;20053;-58
2024/03/31 03:09:22;;;;;;;30.58;14.27;;;;;;;;;;5134994;28;20028;-59
2024/03/31 03:11:47;;;;;;;28.43;13.93;;;;;;;;;;5126134;28;20036;-59
2024/03/31 03:14:13;;;;;;;24.23;12.20;;;;;;;;;;5134767;28;20042;-58
2024/03/31 03:16:38;;;;;;;20.92;10.85;;;;;;;;;;5114236;28;20031;-58
2024/03/31 03:19:04;;;;;;;20.77;10.57;;;;;;;;;;5134956;28;20036;-58
2024/03/31 03:21:29;;;;;;;19.40;10.20;;;;;;;;;;5135027;28;20028;-59
2024/03/31 03:23:54;;;;;;;20.63;10.43;;;;;;;;;;5120116;28;20035;-60
2024/03/31 03:26:19;;;;;;;23.40;11.53;;;;;;;;;;5105371;28;20036;-58
2024/03/31 03:28:46;;;;;;;20.38;11.43;;;;;;;;;;5117066;28;20104;-59
2024/03/31 03:31:11;;;;;;;23.13;10.73;;;;;;;;;;5111089;28;20032;-59
2024/03/31 03:33:40;;;;;;;25.53;10.87;;;;;;;;;;5119912;28;20019;-59
2024/03/31 03:36:06;;;;;;;20.97;10.93;;;;;;;;;;5121081;28;20279;-58
2024/03/31 03:38:31;;;;;;;25.13;11.57;;;;;;;;;;5120745;28;20031;-60
2024/03/31 03:40:57;;;;;;;20.30;10.93;;;;;;;;;;5108337;28;20028;-60
2024/03/31 03:43:23;;;;;;;;;;;;;;;;;;5115058;28;20038;-59
2024/03/31 03:45:53;;;;;;;18.60;10.40;;;;;;;;;;5120975;28;19907;-60
2024/03/31 03:48:19;;;;;;;21.53;11.40;;;;;;;;;;5117683;28;20292;-60
2024/03/31 03:50:44;;;;;;;20.83;10.47;;;;;;;;;;5120802;28;20326;-59
2024/03/31 03:53:10;;;;;;;23.50;10.95;;;;;;;;;;5120274;28;20047;-59
2024/03/31 03:55:35;;;;;;;21.95;11.00;;;;;;;;;;5120646;28;20039;-59
2024/03/31 03:58:01;;;;;;;22.50;12.60;;;;;;;;;;5118678;28;20019;-60
2024/03/31 04:00:26;;;;;;;18.70;10.30;;;;;;;;;;5120362;28;20046;-59
2024/03/31 04:02:52;;;;;;;20.80;10.90;;;;;;;;;;5137417;28;20024;-60
2024/03/31 04:05:18;;;;;;;17.55;9.23;;;;;;;;;;5120614;28;20295;-59
2024/03/31 04:07:46;;;;;;;16.92;9.77;;;;;;;;;;5113779;28;20102;-59
2024/03/31 04:10:11;;;;;;;21.10;10.53;;;;;;;;;;5120214;28;20110;-59
2024/03/31 04:12:37;;;;;;;18.80;9.45;;;;;;;;;;5115147;28;20285;-60
2024/03/31 04:15:02;;;;;;;16.43;9.93;;;;;;;;;;5113702;28;20023;-59
2024/03/31 04:17:28;;;;;;;18.10;9.73;;;;;;;;;;5110155;28;20031;-59
2024/03/31 04:19:53;;;;;;;16.50;9.57;;;;;;;;;;5120103;28;20058;-59
2024/03/31 04:22:19;;;;;;;18.65;9.88;;;;;;;;;;5132640;28;20024;-58
2024/03/31 04:24:44;;;;;;;15.67;8.77;;;;;;;;;;5131343;28;20040;-59
2024/03/31 04:27:10;;;;;;;15.57;7.78;;;;;;;;;;5106491;28;20024;-59
2024/03/31 04:29:36;;;;;;;13.52;7.40;;;;;;;;;;5120022;28;20042;-57
2024/03/31 04:32:02;;;;;;;16.27;8.63;;;;;;;;;;5137575;28;20077;-59
2024/03/31 04:34:28;;;;;;;14.38;8.05;;;;;;;;;;5115766;28;20032;-59
2024/03/31 04:36:54;;;;;;;12.80;7.07;;;;;;;;;;5133178;28;20035;-60
2024/03/31 04:39:20;;;;;;;14.60;6.78;;;;;;;;;;5113278;28;20023;-59
2024/03/31 04:41:45;;;;;;;12.82;7.25;;;;;;;;;;5119300;28;20087;-59
2024/03/31 04:44:11;;;;;;;13.90;7.88;;;;;;;;;;5117702;28;20043;-60
2024/03/31 04:46:37;;;;;;;12.87;7.53;;;;;;;;;;5116731;28;20028;-59
2024/03/31 04:49:03;;;;;;;12.93;8.17;;;;;;;;;;5130523;28;20267;-60
2024/03/31 04:51:30;;;;;;;16.63;8.60;;;;;;;;;;5118845;28;20260;-60
2024/03/31 04:53:56;;;;;;;12.30;6.65;;;;;;;;;;5109170;28;20287;-59
2024/03/31 04:56:22;;;;;;;10.87;6.47;;;;;;;;;;5112346;28;20036;-59
2024/03/31 04:58:48;;;;;;;13.80;8.47;;;;;;;;;;5112329;28;20225;-57
2024/03/31 05:01:13;;;;;;;14.30;8.85;;;;;;;;;;5119282;28;20015;-60
2024/03/31 05:03:39;;;;;;;14.83;8.07;;;;;;;;;;5106072;28;20032;-59
2024/03/31 05:06:05;;;;;;;19.23;9.90;;;;;;;;;;5105879;28;20031;-59
2024/03/31 05:08:31;;;;;;;14.38;9.15;;;;;;;;;;5119037;28;20028;-58
2024/03/31 05:11:00;;;;;;;15.27;8.20;;;;;;;;;;5137019;28;20058;-59
2024/03/31 05:13:29;;;;;;;16.57;8.63;;;;;;;;;;5115139;28;20030;-58
2024/03/31 05:15:57;;;;;;;16.70;9.47;;;;;;;;;;5119154;28;20286;-61
2024/03/31 05:18:22;;;;;;;16.45;9.43;;;;;;;;;;5118780;28;20272;-60
2024/03/31 05:21:02;;;;;;;16.50;9.20;;;;;;;;;;5106787;28;20019;-58
2024/03/31 05:23:28;;;;;;;18.37;9.63;;;;;;;;;;5117975;28;20023;-57
2024/03/31 05:25:55;;;;;;;15.82;9.65;;;;;;;;;;5119001;28;20264;-59
2024/03/31 05:28:21;;;;;;;18.20;10.13;;;;;;;;;;5110297;28;20031;-58
2024/03/31 05:30:47;;;;;;;18.58;10.60;;;;;;;;;;5118800;28;20260;-58
2024/03/31 05:33:13;;;;;;;23.45;11.60;;;;;;;;;;5118176;28;20046;-59
2024/03/31 05:35:47;;;;;;;21.60;10.87;;;;;;;;;;5118804;28;20023;-57
2024/03/31 05:38:14;;;;;;;20.33;10.73;;;;;;;;;;5112119;28;20281;-56
2024/03/31 05:40:43;;;;;;;18.23;11.03;;;;;;;;;;5118384;28;20278;-59
2024/03/31 05:43:09;;;;;;;18.57;10.27;;;;;;;;;;5118316;28;20264;-58
2024/03/31 05:45:37;;;;;;;19.05;11.43;;;;;;;;;;5118237;28;20320;-56
2024/03/31 05:48:10;;;;;;;23.93;11.13;;;;;;;;;;5135780;28;20031;-59
2024/03/31 05:50:40;;;;;;;19.70;11.67;;;;;;;;;;5118356;28;20271;-58
2024/03/31 05:53:06;;;;;;;24.70;12.95;;;;;;;;;;5117328;28;20268;-60
2024/03/31 05:55:32;;;;;;;18.90;10.13;;;;;;;;;;5110957;28;20031;-56
2024/03/31 05:57:59;;;;;;;21.00;12.30;;;;;;;;;;5111933;28;20020;-58
2024/03/31 06:00:26;;;;;;;23.55;12.95;;;;;;;;;;5117761;28;20306;-59
2024/03/31 06:02:52;;;;;;;24.30;12.73;;;;;;;;;;5118191;28;20492;-59
2024/03/31 06:05:18;;;;;;;18.60;10.70;;;;;;;;;;5117875;28;20099;-59
2024/03/31 06:07:47;;;;;;;22.20;12.57;;;;;;;;;;5098217;28;20024;-57
2024/03/31 06:10:13;;;;;;;24.37;13.27;;;;;;;;;;5122725;28;20050;-59
2024/03/31 06:12:39;;;;;;;24.55;14.02;;;;;;;;;;5117809;28;20280;-59
2024/03/31 06:15:05;;;;;;;26.17;13.50;;;;;;;;;;5112971;28;20035;-60
2024/03/31 06:17:31;;;;;;;24.45;13.27;;;;;;;;;;5116726;28;20024;-60
2024/03/31 06:19:56;;;;;;;23.48;13.68;;;;;;;;;;5112194;28;20023;-59
2024/03/31 06:22:22;;;;;;;24.30;12.63;;;;;;;;;;5117741;28;20050;-58
2024/03/31 06:24:47;;;;;;;24.27;13.00;;;;;;;;;;5117605;28;20034;-59
2024/03/31 06:27:13;;;;;;;21.17;12.20;;;;;;;;;;5117785;28;20028;-57
2024/03/31 06:29:40;;;;;;;25.47;14.40;;;;;;;;;;5114433;28;20028;-59
2024/03/31 06:32:07;;;;;;;26.55;14.50;;;;;;;;;;5116936;28;20255;-60
2024/03/31 06:34:32;;;;;;;22.67;12.70;;;;;;;;;;5102485;28;20028;-59
2024/03/31 06:36:58;;;;;;;29.33;14.55;;;;;;;;;;5117406;28;20030;-58
2024/03/31 06:39:23;;;;;;;25.80;14.57;;;;;;;;;;5117233;28;20039;-59
2024/03/31 06:41:49;;;;;;;23.57;14.07;;;;;;;;;;5117456;28;20035;-59
2024/03/31 06:44:15;;;;;;;25.73;14.47;;;;;;;;;;5117191;28;20518;-60
2024/03/31 06:46:41;;;;;;;21.17;12.53;;;;;;;;;;5117434;28;20264;-60
2024/03/31 06:49:06;;;;;;;25.87;13.50;;;;;;;;;;5113742;28;20031;-59
2024/03/31 06:51:32;;;;;;;25.10;14.37;;;;;;;;;;5112936;28;20279;-59
2024/03/31 06:53:57;;;;;;;25.02;13.98;;;;;;;;;;5110667;28;20287;-59
2024/03/31 06:56:23;;;;;;;28.20;15.17;;;;;;;;;;5133427;28;20027;-60
2024/03/31 06:58:48;;;;;;;23.90;14.17;;;;;;;;;;5115988;28;20268;-59
2024/03/31 07:01:15;;;;;;;29.63;15.97;;;;;;;;;;5117028;28;20083;-61
2024/03/31 07:03:41;;;;;;;25.50;14.15;;;;;;;;;;5135746;28;20275;-59
2024/03/31 07:06:06;;;;;;;27.42;15.68;;;;;;;;;;5109311;28;20062;-60
2024/03/31 07:08:35;;;;;;;26.80;16.53;;;;;;;;;;5116817;28;20412;-58
2024/03/31 07:11:00;;;;;;;30.53;16.83;;;;;;;;;;5120220;28;20331;-60
2024/03/31 07:13:26;;;;;;;33.10;18.67;;;;;;;;;;5121097;28;20038;-59
2024/03/31 07:15:51;;;;;;;26.80;15.25;;;;;;;;;;5112375;28;20023;-59
2024/03/31 07:18:17;;;;;;;27.97;16.33;;;;;;;;;;5121209;28;20023;-58
2024/03/31 07:20:42;;;;;;;30.83;16.07;;;;;;;;;;5121202;28;20023;-60
2024/03/31 07:23:08;;;;;;;29.17;17.23;;;;;;;;;;5121122;28;20039;-59
2024/03/31 07:25:35;;;;;;;28.07;16.93;;;;;;;;;;5125027;28;20039;-59
2024/03/31 07:28:01;;;;;;;27.73;17.10;;;;;;;;;;5138883;28;20039;-61
2024/03/31 07:30:26;;;;;;;31.88;17.88;;;;;;;;;;5120907;28;20268;-60
2024/03/31 07:32:52;;;;;;;29.43;17.73;;;;;;;;;;5138934;28;20046;-60
2024/03/31 07:35:18;;;;;;;28.88;17.83;;;;;;;;;;5120505;28;20047;-59
2024/03/31 07:37:43;;;;;;;31.17;18.15;;;;;;;;;;5120973;28;20095;-60
2024/03/31 07:40:09;;;;;;;32.27;19.13;;;;;;;;;;5135830;28;20043;-60
2024/03/31 07:42:34;;;;;;;28.95;18.17;;;;;;;;;;5138684;28;20057;-60
2024/03/31 07:44:59;;;;;;;33.70;20.17;;;;;;;;;;5133533;28;20058;-57
2024/03/31 07:47:25;;;;;;;35.70;19.75;;;;;;;;;;5130027;28;20316;-59
2024/03/31 07:49:50;;;;;;;37.33;20.57;;;;;;;;;;5133438;28;20032;-60
2024/03/31 07:52:16;;;;;;;37.85;21.50;;;;;;;;;;5120553;28;20031;-59
2024/03/31 07:54:41;;;;;;;40.60;22.67;;;;;;;;;;5137899;28;20030;-60
2024/03/31 07:57:07;;;;;;;36.17;21.52;;;;;;;;;;5138353;28;20038;-58
2024/03/31 07:59:33;;;;;;;36.80;20.88;;;;;;;;;;5136771;28;20051;-60
2024/03/31 08:01:58;;;;;;;35.50;20.03;;;;;;;;;;5138292;28;20036;-59
2024/03/31 08:04:24;;;;;;;36.53;21.98;;;;;;;;;;5138324;28;20387;-60
2024/03/31 08:06:49;;;;;;;39.80;21.00;;;;;;;;;;5132097;28;20061;-60
2024/03/31 08:09:15;;;;;;;34.85;20.17;;;;;;;;;;5136536;28;20032;-59
2024/03/31 08:11:40;;;;;;;36.25;21.08;;;;;;;;;;5126292;28;20028;-60
2024/03/31 08:14:06;;;;;;;29.85;18.13;;;;;;;;;;5137706;28;20024;-59
2024/03/31 08:16:31;;;;;;;33.75;19.70;;;;;;;;;;5136748;28;20086;-59
2024/03/31 08:18:57;;;;;;;31.40;18.85;;;;;;;;;;5137859;28;20089;-59
2024/03/31 08:21:23;;;;;;;31.13;19.02;;;;;;;;;;5133627;28;20043;-61
2024/03/31 08:23:48;;;;;;;30.10;19.13;;;;;;;;;;5137539;28;20024;-60
2024/03/31 08:26:14;;;;;;;35.95;20.23;;;;;;;;;;5137046;28;20036;-59
2024/03/31 08:28:39;;;;;;;35.05;22.15;;;;;;;;;;5136733;28;20034;-59
2024/03/31 08:31:05;;;;;;;31.45;20.67;;;;;;;;;;5117997;28;20035;-59
2024/03/31 08:33:30;;;;;;;34.88;20.70;;;;;;;;;;5136244;28;20056;-60
2024/03/31 08:35:56;;;;;;;30.63;19.17;;;;;;;;;;5136859;28;20023;-60
2024/03/31 08:38:21;;;;;;;31.75;18.90;;;;;;;;;;5137628;28;20087;-60
2024/03/31 08:40:49;;;;;;;30.73;19.17;;;;;;;;;;5125318;28;20039;-60
2024/03/31 08:43:19;;;;;;;33.37;19.63;;;;;;;;;;5135759;28;20024;-60
2024/03/31 08:45:44;;;;;;;34.97;19.70;;;;;;;;;;5136615;28;20028;-60
2024/03/31 08:48:11;;;;;;;31.52;19.02;;;;;;;;;;5136232;28;20023;-60
2024/03/31 08:50:37;;;;;;;33.60;20.13;;;;;;;;;;5119176;28;20039;-60
2024/03/31 08:53:02;;;;;;;32.22;18.55;;;;;;;;;;5136786;28;20027;-60
2024/03/31 08:55:28;;;;;;;30.90;19.52;;;;;;;;;;5135657;28;20035;-60
2024/03/31 08:57:54;;;;;;;32.47;18.90;;;;;;;;;;5135668;28;20047;-61
2024/03/31 09:00:19;;;;;;;29.80;17.55;;;;;;;;;;5136403;28;20056;-61
2024/03/31 09:02:44;;;;;;;39.27;18.37;;;;;;;;;;5137034;28;20027;-61
2024/03/31 09:05:10;;;;;;;32.92;18.50;;;;;;;;;;5137002;28;20036;-60
2024/03/31 09:07:36;;;;;;;32.60;18.73;;;;;;;;;;5124590;28;20053;-60
2024/03/31 09:10:03;;;;;;;33.42;18.75;;;;;;;;;;5127230;28;20024;-60
2024/03/31 09:12:28;;;;;;;;;;;;;;;;;;5136189;28;20038;-60
2024/03/31 09:14:53;;;;;;;31.73;19.10;;;;;;;;;;5136872;28;19907;-60
2024/03/31 09:17:19;;;;;;;37.10;19.58;;;;;;;;;;5127729;28;20118;-60
2024/03/31 09:19:44;;;;;;;37.83;19.60;;;;;;;;;;5136698;28;20057;-61
2024/03/31 09:22:11;;;;;;;35.27;19.30;;;;;;;;;;5136909;28;20049;-60
2024/03/31 09:24:38;;;;;;;35.00;20.47;;;;;;;;;;5118904;28;20032;-61
2024/03/31 09:27:05;;;;;;;36.47;19.37;;;;;;;;;;5123485;28;20021;-61
2024/03/31 09:29:30;;;;;;;31.02;17.60;;;;;;;;;;5125216;28;20010;-59
2024/03/31 09:32:04;;;;;;;29.50;18.17;;;;;;;;;;5124602;28;20024;-61
2024/03/31 09:34:29;;;;;;;30.77;16.37;;;;;;;;;;5131090;28;20028;-60
2024/03/31 09:36:55;;;;;;;26.43;15.27;;;;;;;;;;5136040;28;20019;-60
2024/03/31 09:39:20;;;;;;;28.88;16.45;;;;;;;;;;5136122;28;20047;-60
2024/03/31 09:41:49;;;;;;;27.30;16.02;;;;;;;;;;5136250;28;20091;-61
2024/03/31 09:44:15;;;;;;;25.33;15.87;;;;;;;;;;5135813;28;20034;-60
2024/03/31 09:46:41;;;;;;;23.83;14.43;;;;;;;;;;5135585;28;20028;-60
2024/03/31 09:49:08;;;;;;;24.08;14.73;;;;;;;;;;5136083;28;20035;-60
2024/03/31 09:51:36;;;;;;;23.00;14.20;;;;;;;;;;5122435;28;20046;-60
2024/03/31 09:54:25;;;;;;;24.20;13.63;;;;;;;;;;5135875;28;20039;-60
2024/03/31 09:57:07;;;;;;;22.80;14.00;;;;;;;;;;5121230;28;20047;-61
2024/03/31 10:00:01;;;;;;;28.17;14.43;;;;;;;;;;5135223;28;20027;-63
2024/03/31 10:02:26;;;;;;;24.83;13.02;;;;;;;;;;5131916;28;20047;-61
2024/03/31 10:04:52;;;;;;;;;;;;;;;;;;5136336;28;20034;-60
2024/03/31 10:07:18;;;;;;;19.50;11.98;;;;;;;;;;5135505;28;19908;-61
2024/03/31 10:09:44;;;;;;;22.50;11.77;;;;;;;;;;5132403;28;20016;-60
2024/03/31 10:12:09;;;;;;;17.55;11.18;;;;;;;;;;5129322;28;20045;-60
2024/03/31 10:14:36;;;;;;;17.80;10.48;;;;;;;;;;5135744;28;20031;-60
2024/03/31 10:17:02;;;;;;;18.67;11.32;;;;;;;;;;5113720;28;20030;-60
2024/03/31 10:19:31;;;;;;;21.27;11.13;;;;;;;;;;5134852;28;20028;-60
2024/03/31 10:21:58;;;;;;;19.38;10.18;;;;;;;;;;5127918;28;20083;-60
2024/03/31 10:24:24;;;;;;;19.88;9.65;;;;;;;;;;5134989;28;20039;-61
2024/03/31 10:26:49;;;;;;;18.05;9.88;;;;;;;;;;5134639;28;20030;-60
2024/03/31 10:29:18;;;;;;;17.30;9.95;;;;;;;;;;5135545;28;20027;-61
2024/03/31 10:31:43;;;;;;;17.75;9.07;;;;;;;;;;5129546;28;20054;-61
2024/03/31 10:34:08;;;;;;;19.70;10.15;;;;;;;;;;5134940;28;20032;-61
2024/03/31 10:36:34;;;;;;;18.20;9.32;;;;;;;;;;5134954;28;20087;-60
2024/03/31 10:38:59;;;;;;;19.55;9.00;;;;;;;;;;5129737;28;20103;-61
2024/03/31 10:41:25;;;;;;;17.58;10.07;;;;;;;;;;5125880;28;20031;-61
2024/03/31 10:43:51;;;;;;;19.67;10.75;;;;;;;;;;5135316;28;20030;-61
2024/03/31 10:46:17;;;;;;;19.85;9.13;;;;;;;;;;5135096;28;20024;-61
2024/03/31 10:48:42;;;;;;;23.70;9.15;;;;;;;;;;5134929;28;20053;-61
2024/03/31 10:51:14;;;;;;;19.92;9.27;;;;;;;;;;5134585;28;20101;-60
2024/03/31 10:53:40;;;;;;;18.15;9.05;;;;;;;;;;5135050;28;20035;-60
2024/03/31 10:56:06;;;;;;;17.23;7.97;;;;;;;;;;5117168;28;20091;-61
2024/03/31 10:58:32;;;;;;;18.60;8.48;;;;;;;;;;5128398;28;20086;-61
2024/03/31 11:00:57;;;;;;;15.80;8.93;;;;;;;;;;5124974;28;20024;-60
2024/03/31 11:03:26;;;;;;;20.15;9.15;;;;;;;;;;5134691;28;20111;-60
2024/03/31 11:05:51;;;;;;;17.25;8.40;;;;;;;;;;5134758;28;20032;-61
2024/03/31 11:08:17;;;;;;;17.65;6.80;;;;;;;;;;5134611;28;20040;-60
2024/03/31 11:10:43;;;;;;;14.98;5.90;;;;;;;;;;5131609;28;20039;-61
2024/03/31 11:13:08;;;;;;;16.38;6.13;;;;;;;;;;5133575;28;20061;-60
2024/03/31 11:15:34;;;;;;;16.73;5.05;;;;;;;;;;5130731;28;20020;-61
2024/03/31 11:17:59;;;;;;;19.75;5.95;;;;;;;;;;5125093;28;20812;-60
2024/03/31 11:20:25;;;;;;;13.88;4.95;;;;;;;;;;5122170;28;20016;-62
2024/03/31 11:22:50;;;;;;;11.82;4.63;;;;;;;;;;5130192;28;20053;-60
2024/03/31 11:25:16;;;;;;;14.10;5.10;;;;;;;;;;5134569;28;20112;-61
2024/03/31 11:27:41;;;;;;;14.82;5.18;;;;;;;;;;5127978;28;20032;-61
2024/03/31 11:30:09;;;;;;;16.00;4.82;;;;;;;;;;5129882;28;20020;-60
2024/03/31 11:32:35;;;;;;;14.57;5.50;;;;;;;;;;5126911;28;20046;-62
2024/03/31 11:35:01;;;;;;;12.38;4.38;;;;;;;;;;5134710;28;20023;-61
2024/03/31 11:37:26;;;;;;;10.02;4.43;;;;;;;;;;5134474;28;20103;-61
2024/03/31 11:39:58;;;;;;;13.18;4.70;;;;;;;;;;5134681;28;20035;-61
2024/03/31 11:42:25;;;;;;;12.20;4.93;;;;;;;;;;5126000;28;20031;-61
2024/03/31 11:44:51;;;;;;;17.40;5.07;;;;;;;;;;5134506;28;20030;-61
2024/03/31 11:47:16;;;;;;;14.98;4.28;;;;;;;;;;5134242;28;20024;-61
2024/03/31 11:49:42;;;;;;;15.65;4.43;;;;;;;;;;5134423;28;20039;-61
2024/03/31 11:52:08;;;;;;;12.57;4.03;;;;;;;;;;5138064;28;20028;-61
2024/03/31 11:54:33;;;;;;;16.23;5.80;;;;;;;;;;5131069;28;20027;-60
2024/03/31 11:57:02;;;;;;;17.67;5.28;;;;;;;;;;5138485;28;20040;-61
2024/03/31 11:59:27;;;;;;;11.75;3.90;;;;;;;;;;5119078;28;20057;-60
2024/03/31 12:02:00;;;;;;;15.23;4.97;;;;;;;;;;5136023;28;20023;-61
2024/03/31 12:04:26;;;;;;;16.08;6.30;;;;;;;;;;5137864;28;20031;-61
2024/03/31 12:06:53;;;;;;;22.10;6.32;;;;;;;;;;5125583;28;20055;-60
2024/03/31 12:09:20;;;;;;;16.25;4.57;;;;;;;;;;5125566;28;20024;-60
2024/03/31 12:11:45;;;;;;;17.40;5.22;;;;;;;;;;5128318;28;20028;-61
2024/03/31 12:14:12;;;;;;;11.35;3.33;;;;;;;;;;5137882;28;20024;-61
2024/03/31 12:16:41;;;;;;;9.63;3.22;;;;;;;;;;5137821;28;20034;-60
2024/03/31 12:19:06;;;;;;;9.98;3.22;;;;;;;;;;5129977;28;20047;-61
2024/03/31 12:21:31;;;;;;;;;;;;;;;;;;5137783;28;20040;-61
2024/03/31 12:23:57;;;;;;;15.40;3.83;;;;;;;;;;5117257;28;19912;-61
2024/03/31 12:26:23;;;;;;;15.93;4.53;;;;;;;;;;5137958;28;20087;-60
2024/03/31 12:28:48;;;;;;;10.95;4.15;;;;;;;;;;5137406;28;20143;-60
2024/03/31 12:31:14;;;;;;;;;;;;;;;;;;5137967;28;20036;-60
2024/03/31 12:33:40;;;;;;;20.70;4.30;;;;;;;;;;5119252;28;19908;-60
2024/03/31 12:36:05;;;;;;;9.90;3.45;;;;;;;;;;5137657;28;20035;-60
2024/03/31 12:38:31;;;;;;;12.02;3.83;;;;;;;;;;5136920;28;20039;-61
2024/03/31 12:40:57;;;;;;;15.87;2.33;;;;;;;;;;5135889;28;20027;-60
2024/03/31 12:43:23;;;;;;;15.85;3.70;;;;;;;;;;5125670;28;20070;-61
2024/03/31 12:45:48;;;;;;;12.02;2.80;;;;;;;;;;5135164;28;20041;-60
2024/03/31 12:48:14;;;;;;;18.63;3.90;;;;;;;;;;5132682;28;20117;-60
2024/03/31 12:50:47;;;;;;;21.42;3.92;;;;;;;;;;5136526;28;20039;-62
2024/03/31 12:53:12;;;;;;;14.10;3.47;;;;;;;;;;5123440;28;20027;-59
2024/03/31 12:55:38;;;;;;;17.80;2.60;;;;;;;;;;5136543;28;20095;-60
2024/03/31 12:58:04;;;;;;;13.52;2.55;;;;;;;;;;5132044;28;20028;-60
2024/03/31 13:00:30;;;;;;;;;;;;;;;;;;5131160;28;20204;-60
2024/03/31 13:02:55;;;;;;;9.18;2.00;;;;;;;;;;5136503;28;19912;-62
2024/03/31 13:05:25;;;;;;;15.50;2.78;;;;;;;;;;5136914;28;20032;-59
2024/03/31 13:07:51;;;;;;;10.37;1.70;;;;;;;;;;5135069;28;20028;-60
2024/03/31 13:10:16;;;;;;;9.77;2.08;;;;;;;;;;5130755;28;20057;-60
2024/03/31 13:12:41;;;;;;;10.47;1.80;;;;;;;;;;5107529;28;20031;-60
2024/03/31 13:15:07;;;;;;;12.53;2.80;;;;;;;;;;5130134;28;20084;-60
2024/03/31 13:17:33;;;;;;;13.73;2.47;;;;;;;;;;5136592;28;20265;-59
2024/03/31 13:19:58;;;;;;;10.27;2.17;;;;;;;;;;5131381;28;20032;-60
2024/03/31 13:22:24;;;;;;;12.93;2.03;;;;;;;;;;5133282;28;20038;-60
2024/03/31 13:24:49;;;;;;;7.78;1.55;;;;;;;;;;5134166;28;20087;-60
2024/03/31 13:27:14;;;;;;;8.90;1.70;;;;;;;;;;5136395;28;20028;-60
2024/03/31 13:29:40;;;;;;;12.68;2.75;;;;;;;;;;5133685;28;20053;-61
2024/03/31 13:32:06;;;;;;;12.00;1.98;;;;;;;;;;5136641;28;20027;-60
2024/03/31 13:34:31;;;;;;;12.25;2.08;;;;;;;;;;5136235;28;20027;-60
2024/03/31 13:36:56;;;;;;;9.03;2.17;;;;;;;;;;5136344;28;20099;-60
2024/03/31 13:39:22;;;;;;;10.03;1.93;;;;;;;;;;5123214;28;20039;-60
2024/03/31 13:41:47;;;;;;;8.93;2.63;;;;;;;;;;5130759;28;20088;-60
2024/03/31 13:44:13;;;;;;;11.43;1.67;;;;;;;;;;5127437;28;20055;-59
2024/03/31 13:46:38;;;;;;;8.00;1.65;;;;;;;;;;5133329;28;20073;-60
2024/03/31 13:49:03;;;;;;;11.90;2.77;;;;;;;;;;5132739;28;20054;-60
2024/03/31 13:51:29;;;;;;;8.50;3.20;;;;;;;;;;5135697;28;20028;-60
2024/03/31 13:53:54;;;;;;;4.93;1.40;;;;;;;;;;5131473;28;20035;-60
2024/03/31 13:56:20;;;;;;;8.70;2.78;;;;;;;;;;5135576;28;20027;-61
2024/03/31 13:58:45;;;;;;;13.63;3.23;;;;;;;;;;5135104;28;20088;-60
2024/03/31 14:01:11;;;;;;;10.73;1.67;;;;;;;;;;5135824;28;20055;-60
2024/03/31 14:03:36;;;;;;;10.85;2.45;;;;;;;;;;5134701;28;20047;-60
2024/03/31 14:06:03;;;;;;;8.03;1.53;;;;;;;;;;5135755;28;20024;-58
2024/03/31 14:08:28;;;;;;;9.50;1.97;;;;;;;;;;5133630;28;20091;-60
2024/03/31 14:10:54;;;;;;;13.30;2.33;;;;;;;;;;5135845;28;20015;-60
2024/03/31 14:13:23;;;;;;;11.63;4.13;;;;;;;;;;5127813;28;20268;-60
2024/03/31 14:15:48;;;;;;;14.13;1.87;;;;;;;;;;5135335;28;20034;-60
2024/03/31 14:18:13;;;;;;;16.33;3.00;;;;;;;;;;5135466;28;20024;-60
2024/03/31 14:20:39;;;;;;;9.20;2.90;;;;;;;;;;5125298;28;20078;-60